DuBois Regional Airport
KDUJ : rendu visible

Aérodrome :











RETROUVEZ-NOUS SUR...

 
LOGIN :

S'inscrire | Disclaimer

   EN    FR    IT 

 









Légende :    VFR   VFR Marginal   IFR   IFR Intensif   IFR Très Intensif
Visi : 
Plafond : 
>= 8 km
>= 3000ft
5 à 8 km
1000 à 3000 ft
1500m à 5 km
500 à 1000 ft
800 à 1500m
200 à 500 ft
< 800m
< 200 ft
Symboles :   Orages  Brouillard  Fortes neiges  Fortes précipitations  Vent > 20 kt






- Altitude de l'aérodrome : 1817 ft
- Code IATA : DUJ


KDUJ - DuBois Regional

DERNIER METAR :
  • 181730Z AUTO 14014G21KT 1 1/2SM UP OVC011 M04/M07 A2991 RMK AO2 UPB1656E03B12SNE1656B03E12 PRESFR P0005 T10391067

METARs EXPIRÉS :
  • 181706Z AUTO 13012KT 2SM -SN BKN012 OVC021 M04/M07 A2996 RMK AO2 UPB1656E03SNE1656B03 PRESFR P0002 T10441072
  • 181653Z AUTO 13014KT 1 3/4SM -SN BKN021 OVC026 M04/M07 A2997 RMK AO2 UPB45E47SNE45B47 SLP175 P0008 T10441072
  • 181641Z AUTO 13012G22KT 1 1/4SM -SN FEW012 OVC024 M04/M08 A3000 RMK AO2 P0006 T10441078
  • 181609Z AUTO 14012KT 1/2SM SN BKN014 OVC024 M04/M08 A3005 RMK AO2 PRESFR P0001 T10441078
  • 181553Z AUTO 13013KT 1/2SM SN BKN018 OVC028 M04/M08 A3007 RMK AO2 SNB24 PRESFR SLP207 P0000 T10441083
  • 181538Z AUTO 14011G19KT 3/4SM -SN BKN024 BKN041 OVC049 M04/M08 A3009 RMK AO2 SNB24 PRESFR P0000 T10441083
  • 181530Z AUTO 14011G21KT 1 3/4SM -SN SCT033 BKN041 OVC060 M04/M09 A3010 RMK AO2 SNB24 P0000 T10441089
  • 181453Z AUTO 14012G24KT 10SM OVC070 M05/M09 A3012 RMK AO2 SNE03 SLP225 P0000 60005 T10501089 58031

TAF KDUJ
Valide du 18 à 18h jusqu'au 19 à 18h UTC


181724Z 1818/1918 13012G18KT 1SM -SN OVC007 WS020/19040KT
FM182000 16014G25KT 1SM -FZRA OVC007 WS020/19040KT
FM182200 18013G23KT 3SM -RA OVC007 WS020/21045KT
FM190200 25015G25KT P6SM -SNRA OVC007
FM191100 27015G25KT P6SM VCSH OVC015



MET'MAP, la Météo Aéronautique d'un coup d'oeil ! - Copyright ORBIFLY Décembre 2007 - Disclaimer

ORBIFLY MET'MAP TEAM :

Programmation & Développement : Alexandra Zaïnal
Sur une idée originale de : Baudouin d'Aumeries
Assistance à la programmation : Marc-Olivier Méhu
Soutien technique & logistique : Manuel Goepfert

Contact : metmap@orbifly.com




SOURCES & CREDITS :

   NOAA       Earth
Advisory